Time;durP1;ratioP1;P1;durP2;ratioP2;P2;SDS_P1;SDS_P2;PMS_P1;PMS_P2;Temp;Humidity;BMP_temperature;BMP_pressure;BME280_temperature;BME280_humidity;BME280_pressure;Samples;Min_cycle;Max_cycle;Signal;HPM_P1;HPM_P2
2023/12/22 00:02:12;;;;;;;4.38;1.27;;;7.00;99.90;;;;;;5061906;28;20653;-37
2023/12/22 00:04:38;;;;;;;5.30;1.35;;;7.00;99.90;;;;;;5060452;28;20028;-37
2023/12/22 00:07:04;;;;;;;6.00;1.35;;;7.00;99.90;;;;;;5058956;28;20052;-37
2023/12/22 00:09:29;;;;;;;10.90;2.08;;;7.00;99.90;;;;;;5061330;28;20029;-37
2023/12/22 00:11:55;;;;;;;7.35;1.38;;;7.00;99.90;;;;;;5057657;28;20032;-39
2023/12/22 00:14:21;;;;;;;5.68;1.70;;;7.10;99.90;;;;;;5057167;28;20041;-36
2023/12/22 00:16:52;;;;;;;6.72;1.85;;;7.10;99.90;;;;;;5060351;28;20033;-38
2023/12/22 00:19:18;;;;;;;7.28;1.60;;;7.10;99.90;;;;;;5061181;28;20118;-37
2023/12/22 00:21:43;;;;;;;8.73;1.70;;;7.10;99.90;;;;;;5061593;28;20513;-38
2023/12/22 00:24:09;;;;;;;8.07;1.70;;;7.20;99.90;;;;;;5060334;28;20029;-37
2023/12/22 00:26:35;;;;;;;7.38;1.92;;;7.10;99.90;;;;;;5061374;28;20734;-37
2023/12/22 00:29:00;;;;;;;10.90;2.00;;;7.10;99.90;;;;;;5061861;28;20615;-37
2023/12/22 00:31:26;;;;;;;6.30;1.75;;;7.00;99.90;;;;;;5060798;28;20565;-36
2023/12/22 00:33:51;;;;;;;10.65;1.50;;;7.00;99.90;;;;;;5060318;28;20055;-37
2023/12/22 00:36:24;;;;;;;9.02;1.83;;;7.00;99.90;;;;;;5053944;28;20040;-35
2023/12/22 00:38:50;;;;;;;4.72;1.50;;;6.90;99.90;;;;;;5059864;28;20020;-36
2023/12/22 00:41:16;;;;;;;5.50;1.20;;;6.80;99.90;;;;;;5061061;28;20024;-35
2023/12/22 00:43:41;;;;;;;7.95;1.35;;;6.70;99.90;;;;;;5058978;28;20031;-35
2023/12/22 00:46:07;;;;;;;5.13;1.10;;;6.60;99.90;;;;;;5061446;28;20031;-35
2023/12/22 00:48:32;;;;;;;5.82;1.13;;;6.60;99.90;;;;;;5062319;28;20029;-35
2023/12/22 00:50:58;;;;;;;6.13;1.23;;;6.50;99.90;;;;;;5060940;28;20582;-36
2023/12/22 00:53:23;;;;;;;4.45;0.88;;;6.50;99.90;;;;;;5060984;28;20037;-37
2023/12/22 00:55:49;;;;;;;5.10;1.42;;;6.40;99.90;;;;;;5061525;28;20078;-37
2023/12/22 00:58:15;;;;;;;6.80;1.33;;;6.40;99.90;;;;;;5059829;28;20110;-36
2023/12/22 01:00:40;;;;;;;3.75;0.90;;;6.40;99.90;;;;;;5060870;28;20059;-37
2023/12/22 01:03:06;;;;;;;7.93;1.20;;;6.40;99.90;;;;;;5061037;28;20025;-36
2023/12/22 01:05:31;;;;;;;3.10;0.80;;;6.40;99.90;;;;;;5059239;28;20040;-37
2023/12/22 01:07:57;;;;;;;2.75;0.80;;;6.40;99.90;;;;;;5060810;28;20032;-36
2023/12/22 01:10:22;;;;;;;5.05;1.10;;;6.40;99.90;;;;;;5061139;28;20032;-37
2023/12/22 01:12:48;;;;;;;4.65;0.82;;;6.40;99.90;;;;;;5060940;28;20017;-37
2023/12/22 01:15:13;;;;;;;3.53;0.77;;;6.40;99.90;;;;;;5059602;28;20838;-38
2023/12/22 01:17:39;;;;;;;4.75;0.98;;;6.40;99.90;;;;;;5060036;28;20113;-38
2023/12/22 01:20:05;;;;;;;3.00;0.98;;;6.30;99.90;;;;;;5060138;28;20074;-37
2023/12/22 01:22:38;;;;;;;2.55;0.70;;;6.30;99.90;;;;;;5058973;28;20027;-37
2023/12/22 01:25:05;;;;;;;5.63;0.90;;;6.30;99.90;;;;;;5060451;28;20751;-37
2023/12/22 01:27:31;;;;;;;1.40;0.70;;;6.20;99.90;;;;;;5059514;28;20566;-38
2023/12/22 01:29:57;;;;;;;2.92;0.70;;;6.20;99.90;;;;;;5061506;28;20032;-37
2023/12/22 01:32:22;;;;;;;2.35;0.70;;;6.20;99.90;;;;;;5058324;28;20035;-38
2023/12/22 01:34:48;;;;;;;4.82;1.00;;;6.30;99.90;;;;;;5055298;28;20066;-37
2023/12/22 01:37:14;;;;;;;3.72;1.02;;;6.30;99.90;;;;;;5060744;28;20024;-37
2023/12/22 01:39:40;;;;;;;5.70;1.40;;;6.30;99.90;;;;;;5060334;28;20036;-37
2023/12/22 01:42:06;;;;;;;3.53;0.90;;;6.30;99.90;;;;;;5059148;28;20060;-37
2023/12/22 01:44:32;;;;;;;4.63;0.95;;;6.40;99.90;;;;;;5059556;28;20111;-36
2023/12/22 01:46:58;;;;;;;4.72;0.80;;;6.40;99.90;;;;;;5057116;28;20119;-36
2023/12/22 01:49:25;;;;;;;4.53;1.40;;;6.40;99.90;;;;;;5056733;28;20056;-36
2023/12/22 01:51:52;;;;;;;5.15;1.10;;;6.40;99.90;;;;;;5059548;28;20028;-37
2023/12/22 01:54:18;;;;;;;3.63;1.10;;;6.40;99.90;;;;;;5054214;28;20048;-36
2023/12/22 01:56:44;;;;;;;7.78;1.45;;;6.40;99.90;;;;;;5058424;28;20114;-36
2023/12/22 01:59:11;;;;;;;5.35;1.30;;;6.40;99.90;;;;;;5059716;28;20035;-37
2023/12/22 02:01:38;;;;;;;4.20;0.95;;;6.40;99.90;;;;;;5058659;28;20056;-36
2023/12/22 02:04:04;;;;;;;5.28;1.10;;;6.40;99.90;;;;;;5049504;28;20033;-36
2023/12/22 02:06:31;;;;;;;6.47;1.15;;;6.40;99.90;;;;;;5058857;28;20124;-36
2023/12/22 02:08:58;;;;;;;4.38;1.38;;;6.40;99.90;;;;;;5059173;28;20197;-37
2023/12/22 02:11:23;;;;;;;3.88;1.25;;;6.40;99.90;;;;;;5059543;28;20035;-37
2023/12/22 02:13:49;;;;;;;5.15;1.00;;;6.50;99.90;;;;;;5058942;28;20483;-36
2023/12/22 02:16:38;;;;;;;5.30;1.10;;;6.50;99.90;;;;;;5056618;28;20079;-35
2023/12/22 02:19:38;;;;;;;5.38;1.10;;;6.50;99.90;;;;;;5059050;28;20024;-35
2023/12/22 02:22:08;;;;;;;6.25;1.27;;;6.50;99.90;;;;;;5039073;28;20045;-36
2023/12/22 02:24:33;;;;;;;7.22;1.27;;;6.50;99.90;;;;;;5059460;28;20497;-35
2023/12/22 02:27:04;;;;;;;5.40;1.55;;;6.50;99.90;;;;;;5057866;28;20531;-36
2023/12/22 02:29:35;;;;;;;3.83;1.40;;;6.60;99.90;;;;;;5054257;28;20111;-36
2023/12/22 02:32:06;;;;;;;5.57;1.38;;;6.50;99.90;;;;;;5058752;28;20119;-36
2023/12/22 02:34:37;;;;;;;5.53;1.30;;;6.60;99.90;;;;;;5057368;28;20478;-36
2023/12/22 02:37:06;;;;;;;7.13;1.42;;;6.60;99.90;;;;;;5057328;28;20377;-36
2023/12/22 02:39:32;;;;;;;8.07;1.50;;;6.60;99.90;;;;;;5057703;28;20547;-35
2023/12/22 02:41:58;;;;;;;12.07;2.22;;;6.60;99.90;;;;;;5060048;28;20025;-36
2023/12/22 02:44:24;;;;;;;4.30;1.30;;;6.60;99.90;;;;;;5058714;28;20687;-44
2023/12/22 02:46:50;;;;;;;6.95;1.20;;;6.70;99.90;;;;;;5058530;28;20044;-37
2023/12/22 02:49:16;;;;;;;4.82;1.15;;;6.70;99.90;;;;;;5059807;28;20036;-36
2023/12/22 02:51:42;;;;;;;6.70;1.83;;;6.70;99.90;;;;;;5057717;28;20745;-36
2023/12/22 02:54:08;;;;;;;6.70;1.30;;;6.70;99.90;;;;;;5054970;28;20407;-35
2023/12/22 02:56:33;;;;;;;5.25;1.30;;;6.70;99.90;;;;;;5056729;28;20036;-36
2023/12/22 02:58:59;;;;;;;9.80;1.50;;;6.70;99.90;;;;;;5057060;28;20016;-37
2023/12/22 03:01:30;;;;;;;7.00;1.88;;;6.70;99.90;;;;;;5059098;28;20040;-36
2023/12/22 03:03:56;;;;;;;5.83;1.53;;;6.70;99.90;;;;;;5058311;28;20032;-37
2023/12/22 03:06:21;;;;;;;7.55;1.75;;;6.70;99.90;;;;;;5056594;28;20294;-37
2023/12/22 03:08:47;;;;;;;5.38;1.25;;;6.70;99.90;;;;;;5059853;28;20017;-36
2023/12/22 03:11:13;;;;;;;5.57;1.42;;;6.70;99.90;;;;;;5061839;28;20021;-37
2023/12/22 03:13:38;;;;;;;6.28;1.73;;;6.70;99.90;;;;;;5061307;28;20020;-36
2023/12/22 03:16:08;;;;;;;11.68;2.65;;;6.70;99.90;;;;;;5062649;28;20031;-37
2023/12/22 03:18:34;;;;;;;8.85;2.63;;;6.70;99.90;;;;;;5061900;28;20441;-42
2023/12/22 03:20:59;;;;;;;13.98;2.30;;;6.80;99.90;;;;;;5061832;28;20507;-41
2023/12/22 03:23:25;;;;;;;13.60;2.35;;;6.80;99.90;;;;;;5061414;28;20445;-37
2023/12/22 03:25:50;;;;;;;18.88;2.85;;;6.90;99.90;;;;;;5060730;28;20036;-37
2023/12/22 03:28:16;;;;;;;12.48;2.28;;;6.90;99.90;;;;;;5062092;28;20039;-37
2023/12/22 03:30:42;;;;;;;12.13;2.20;;;7.00;99.90;;;;;;5061202;28;20043;-37
2023/12/22 03:33:07;;;;;;;10.70;2.13;;;7.00;99.90;;;;;;5059042;28;20036;-41
2023/12/22 03:35:33;;;;;;;7.28;1.75;;;7.00;99.90;;;;;;5062001;28;20024;-37
2023/12/22 03:37:58;;;;;;;8.55;1.48;;;6.90;99.90;;;;;;5062082;28;20494;-37
2023/12/22 03:40:24;;;;;;;5.82;1.58;;;6.70;99.90;;;;;;5061192;28;20024;-37
2023/12/22 03:42:50;;;;;;;7.65;1.55;;;6.50;99.90;;;;;;5061662;28;20462;-36
2023/12/22 03:45:15;;;;;;;5.30;1.10;;;6.40;99.90;;;;;;5061762;28;20089;-37
2023/12/22 03:47:41;;;;;;;5.70;1.30;;;6.20;99.90;;;;;;5061130;28;20040;-37
2023/12/22 03:50:07;;;;;;;6.22;1.23;;;6.20;99.90;;;;;;5061190;28;20425;-37
2023/12/22 03:52:32;;;;;;;5.95;1.33;;;6.10;99.90;;;;;;5059123;28;20040;-38
2023/12/22 03:54:58;;;;;;;5.63;1.27;;;6.00;99.90;;;;;;5060896;28;20071;-37
2023/12/22 03:57:23;;;;;;;6.55;1.17;;;6.00;99.90;;;;;;5060683;28;20109;-37
2023/12/22 03:59:49;;;;;;;3.13;1.15;;;6.00;99.90;;;;;;5062386;28;20029;-37
2023/12/22 04:02:15;;;;;;;6.00;1.40;;;5.90;99.90;;;;;;5060866;28;20106;-36
2023/12/22 04:04:40;;;;;;;4.93;1.20;;;5.90;99.90;;;;;;5061751;28;20523;-37
2023/12/22 04:07:06;;;;;;;7.65;1.50;;;5.90;99.90;;;;;;5061923;28;20048;-37
2023/12/22 04:09:31;;;;;;;5.40;1.10;;;5.90;99.90;;;;;;5060540;28;20031;-37
2023/12/22 04:11:57;;;;;;;7.13;1.40;;;5.80;99.90;;;;;;5059836;28;20024;-37
2023/12/22 04:14:23;;;;;;;4.70;1.30;;;5.80;99.90;;;;;;5061827;28;20024;-36
2023/12/22 04:16:48;;;;;;;7.20;1.35;;;5.80;99.90;;;;;;5061397;28;20021;-37
2023/12/22 04:19:14;;;;;;;4.40;1.40;;;5.80;99.90;;;;;;5060630;28;20025;-37
2023/12/22 04:21:39;;;;;;;6.43;1.33;;;5.80;99.90;;;;;;5061108;28;20017;-37
2023/12/22 04:24:05;;;;;;;3.42;1.20;;;5.90;99.90;;;;;;5057124;28;20043;-37
2023/12/22 04:26:31;;;;;;;5.65;1.00;;;5.90;99.90;;;;;;5059051;28;20053;-37
2023/12/22 04:28:56;;;;;;;2.45;0.80;;;5.90;99.90;;;;;;5057485;28;20101;-37
2023/12/22 04:31:22;;;;;;;4.40;1.00;;;5.90;99.90;;;;;;5058836;28;20058;-37
2023/12/22 04:33:50;;;;;;;2.97;0.90;;;6.00;99.90;;;;;;5060327;28;20029;-38
2023/12/22 04:36:16;;;;;;;6.63;1.40;;;6.00;99.90;;;;;;5056033;28;20028;-42
2023/12/22 04:38:41;;;;;;;4.82;1.05;;;6.10;99.90;;;;;;5060463;28;20070;-35
2023/12/22 04:41:07;;;;;;;8.48;1.33;;;6.10;99.90;;;;;;5061447;28;20028;-35
2023/12/22 04:43:33;;;;;;;7.60;1.13;;;6.10;99.90;;;;;;5061143;28;20020;-38
2023/12/22 04:45:58;;;;;;;3.30;1.27;;;6.20;99.90;;;;;;5061645;28;20129;-36
2023/12/22 04:48:24;;;;;;;5.97;1.02;;;6.20;99.90;;;;;;5060032;28;20687;-35
2023/12/22 04:50:49;;;;;;;4.00;0.80;;;6.30;99.90;;;;;;5060634;28;20040;-36
2023/12/22 04:53:15;;;;;;;2.05;0.70;;;6.30;99.90;;;;;;5060804;28;20143;-37
2023/12/22 04:55:41;;;;;;;4.60;0.93;;;6.30;99.90;;;;;;5060644;28;20028;-36
2023/12/22 04:58:06;;;;;;;2.97;0.70;;;6.30;99.90;;;;;;5058897;28;20044;-37
2023/12/22 05:00:32;;;;;;;3.13;0.90;;;6.30;99.90;;;;;;5059244;28;20081;-37
2023/12/22 05:02:57;;;;;;;5.00;1.20;;;6.40;99.90;;;;;;5060177;28;20029;-37
2023/12/22 05:05:23;;;;;;;5.55;1.35;;;6.40;99.90;;;;;;5060471;28;20029;-36
2023/12/22 05:07:49;;;;;;;5.63;1.65;;;6.50;99.90;;;;;;5060326;28;20476;-37
2023/12/22 05:10:14;;;;;;;7.82;1.48;;;6.50;99.90;;;;;;5059765;28;20032;-36
2023/12/22 05:12:40;;;;;;;6.70;1.95;;;6.50;99.90;;;;;;5060212;28;20078;-37
2023/12/22 05:15:06;;;;;;;5.32;1.30;;;6.50;99.90;;;;;;5060479;28;20021;-36
2023/12/22 05:17:32;;;;;;;4.40;1.20;;;6.50;99.90;;;;;;5060142;28;20523;-36
2023/12/22 05:19:58;;;;;;;5.70;1.38;;;6.50;99.90;;;;;;5058150;28;20830;-37
2023/12/22 05:22:24;;;;;;;4.82;1.25;;;6.50;99.90;;;;;;5060461;28;20024;-36
2023/12/22 05:24:50;;;;;;;8.43;1.30;;;6.50;99.90;;;;;;5060308;28;20024;-36
2023/12/22 05:27:18;;;;;;;4.20;1.40;;;6.50;99.90;;;;;;5057051;28;20033;-36
2023/12/22 05:29:47;;;;;;;8.75;1.55;;;6.50;99.90;;;;;;5058748;28;20024;-35
2023/12/22 05:32:12;;;;;;;4.50;1.33;;;6.50;99.90;;;;;;5058804;28;20102;-36
2023/12/22 05:34:38;;;;;;;3.45;1.13;;;6.50;99.90;;;;;;5059419;28;20745;-36
2023/12/22 05:37:05;;;;;;;5.35;1.10;;;6.50;99.90;;;;;;5059467;28;20028;-36
2023/12/22 05:39:31;;;;;;;4.93;1.27;;;6.50;99.90;;;;;;5057164;28;20903;-36
2023/12/22 05:41:57;;;;;;;6.00;1.25;;;6.50;99.90;;;;;;5059873;28;20035;-37
2023/12/22 05:44:24;;;;;;;4.45;1.10;;;6.50;99.90;;;;;;5059753;28;20016;-36
2023/12/22 05:46:50;;;;;;;5.22;1.17;;;6.60;99.90;;;;;;5058360;28;20608;-37
2023/12/22 05:49:18;;;;;;;4.22;1.23;;;6.60;99.90;;;;;;5058758;28;20029;-36
2023/12/22 05:51:44;;;;;;;6.65;1.17;;;6.60;99.90;;;;;;5059962;28;20090;-36
2023/12/22 05:54:11;;;;;;;7.88;2.40;;;6.60;99.90;;;;;;5058449;28;20041;-37
2023/12/22 05:56:36;;;;;;;4.82;1.33;;;6.60;99.90;;;;;;5059627;28;20025;-36
2023/12/22 05:59:03;;;;;;;8.20;2.08;;;6.70;99.90;;;;;;5057373;28;20016;-37
2023/12/22 06:01:28;;;;;;;7.90;1.67;;;6.70;99.90;;;;;;5058306;28;20025;-37
2023/12/22 06:03:54;;;;;;;9.68;2.00;;;6.70;99.90;;;;;;5059152;28;20035;-37
2023/12/22 06:06:20;;;;;;;9.20;1.60;;;6.80;99.90;;;;;;5059318;28;20032;-37
2023/12/22 06:08:46;;;;;;;7.07;1.60;;;6.80;99.90;;;;;;5058174;28;20794;-36
2023/12/22 06:11:12;;;;;;;8.55;1.88;;;6.80;99.90;;;;;;5058432;28;20043;-37
2023/12/22 06:13:38;;;;;;;7.35;1.42;;;6.90;99.90;;;;;;5058493;28;20487;-36
2023/12/22 06:16:03;;;;;;;8.07;1.60;;;7.00;99.90;;;;;;5058010;28;20029;-36
2023/12/22 06:18:29;;;;;;;7.40;1.98;;;7.00;99.90;;;;;;5058486;28;20428;-35
2023/12/22 06:20:54;;;;;;;8.43;1.67;;;7.00;99.90;;;;;;5059339;28;20036;-37
2023/12/22 06:23:20;;;;;;;7.53;1.70;;;7.10;99.90;;;;;;5058694;28;20044;-36
2023/12/22 06:25:48;;;;;;;10.43;2.70;;;7.10;99.90;;;;;;5057898;28;20032;-36
2023/12/22 06:28:16;;;;;;;9.32;1.70;;;7.20;99.90;;;;;;5059290;28;20395;-37
2023/12/22 06:30:42;;;;;;;7.15;1.60;;;7.20;99.90;;;;;;5057837;28;20037;-37
2023/12/22 06:33:08;;;;;;;7.22;1.88;;;7.30;99.90;;;;;;5058520;28;20394;-35
2023/12/22 06:35:34;;;;;;;6.00;1.60;;;7.30;99.90;;;;;;5056849;28;20327;-36
2023/12/22 06:38:03;;;;;;;8.68;1.95;;;7.40;99.90;;;;;;5058648;28;20034;-35
2023/12/22 06:40:29;;;;;;;9.60;2.03;;;7.40;99.90;;;;;;5059430;28;20033;-37
2023/12/22 06:42:54;;;;;;;8.25;1.98;;;7.50;99.90;;;;;;5058645;28;20040;-36
2023/12/22 06:45:20;;;;;;;8.18;2.15;;;7.60;99.90;;;;;;5057807;28;20024;-37
2023/12/22 06:47:46;;;;;;;10.00;1.90;;;7.70;99.90;;;;;;5059071;28;20044;-37
2023/12/22 06:50:11;;;;;;;4.32;1.38;;;7.70;99.90;;;;;;5058472;28;20032;-37
2023/12/22 06:52:37;;;;;;;4.38;1.52;;;7.70;99.90;;;;;;5058642;28;20059;-37
2023/12/22 06:55:02;;;;;;;7.03;1.60;;;7.80;99.90;;;;;;5057977;28;20101;-37
2023/12/22 06:57:28;;;;;;;6.50;1.80;;;7.80;99.90;;;;;;5057237;28;20035;-35
2023/12/22 06:59:53;;;;;;;7.13;1.45;;;7.80;99.90;;;;;;5059161;28;20044;-36
2023/12/22 07:02:19;;;;;;;8.23;1.50;;;7.90;99.90;;;;;;5059028;28;20375;-35
2023/12/22 07:05:23;;;;;;;9.43;2.13;;;7.90;99.90;;;;;;5057483;28;20480;-35
2023/12/22 07:07:50;;;;;;;7.65;2.33;;;8.00;99.90;;;;;;5058791;28;20220;-36
2023/12/22 07:10:16;;;;;;;8.93;2.28;;;8.00;99.90;;;;;;5059607;28;20351;-36
2023/12/22 07:12:41;;;;;;;5.72;1.55;;;8.10;99.90;;;;;;5065168;28;20497;-36
2023/12/22 07:15:07;;;;;;;10.90;2.10;;;8.10;99.90;;;;;;5058079;28;20597;-36
2023/12/22 07:17:34;;;;;;;8.73;2.88;;;8.10;99.90;;;;;;5056291;28;20046;-36
2023/12/22 07:19:59;;;;;;;12.65;2.47;;;8.10;99.90;;;;;;5055742;28;20037;-36
2023/12/22 07:22:28;;;;;;;10.20;1.75;;;8.20;99.90;;;;;;5056415;28;20036;-36
2023/12/22 07:24:55;;;;;;;8.73;1.83;;;8.20;99.90;;;;;;5054926;28;20109;-36
2023/12/22 07:27:21;;;;;;;9.98;2.55;;;8.20;99.90;;;;;;5057878;28;20036;-36
2023/12/22 07:29:46;;;;;;;7.18;1.73;;;8.20;99.90;;;;;;5057457;28;20033;-36
2023/12/22 07:32:12;;;;;;;10.45;2.08;;;8.20;99.90;;;;;;5052725;28;20060;-35
2023/12/22 07:34:38;;;;;;;10.98;2.25;;;8.30;99.90;;;;;;5055513;28;20040;-37
2023/12/22 07:37:04;;;;;;;10.57;2.50;;;8.30;99.90;;;;;;5056782;28;20028;-36
2023/12/22 07:39:30;;;;;;;12.10;3.58;;;8.30;99.90;;;;;;5056186;28;20029;-36
2023/12/22 07:41:55;;;;;;;13.43;2.75;;;8.40;99.90;;;;;;5057963;28;20043;-35
2023/12/22 07:44:21;;;;;;;14.25;2.83;;;8.40;99.90;;;;;;5056100;28;20033;-36
2023/12/22 07:46:57;;;;;;;9.80;2.33;;;8.40;99.90;;;;;;5056548;28;20037;-36
2023/12/22 07:49:23;;;;;;;10.02;2.83;;;8.40;99.90;;;;;;5057138;28;20127;-35
2023/12/22 07:51:51;;;;;;;9.48;2.38;;;8.50;99.90;;;;;;5056388;28;20028;-37
2023/12/22 07:54:17;;;;;;;10.15;2.63;;;8.50;99.90;;;;;;5057760;28;20188;-36
2023/12/22 07:56:42;;;;;;;19.40;3.50;;;8.50;99.90;;;;;;5061616;28;20029;-36
2023/12/22 07:59:08;;;;;;;11.85;2.42;;;8.60;99.90;;;;;;5060014;28;20115;-35
2023/12/22 08:01:34;;;;;;;12.55;3.35;;;8.60;99.90;;;;;;5057470;28;20101;-37
2023/12/22 08:03:59;;;;;;;13.25;2.90;;;8.60;99.90;;;;;;5061357;28;20028;-37
2023/12/22 08:06:25;;;;;;;15.77;3.35;;;8.60;99.90;;;;;;5060635;28;20036;-36
2023/12/22 08:08:51;;;;;;;12.50;3.10;;;8.60;99.90;;;;;;5060428;28;20012;-37
2023/12/22 08:11:16;;;;;;;14.45;3.05;;;8.70;99.90;;;;;;5059978;28;20072;-38
2023/12/22 08:13:42;;;;;;;16.33;4.20;;;8.70;99.90;;;;;;5058689;28;20032;-36
2023/12/22 08:16:07;;;;;;;22.42;3.92;;;8.70;99.90;;;;;;5059933;28;20025;-36
2023/12/22 08:18:33;;;;;;;13.20;2.97;;;8.70;99.90;;;;;;5059885;28;20602;-37
2023/12/22 08:20:58;;;;;;;11.63;2.92;;;8.60;99.90;;;;;;5058666;28;20023;-37
2023/12/22 08:23:24;;;;;;;11.60;3.08;;;8.50;99.90;;;;;;5059527;28;20112;-36
2023/12/22 08:25:50;;;;;;;6.35;2.50;;;8.50;99.90;;;;;;5057563;28;20036;-36
2023/12/22 08:28:15;;;;;;;12.13;2.60;;;8.40;99.90;;;;;;5057000;28;20028;-38
2023/12/22 08:30:50;;;;;;;13.00;2.88;;;8.30;99.90;;;;;;5054801;28;20121;-37
2023/12/22 08:33:15;;;;;;;10.88;2.15;;;8.30;99.90;;;;;;5057969;28;20589;-38
2023/12/22 08:35:42;;;;;;;11.45;2.28;;;8.20;99.90;;;;;;5059674;28;20044;-37
2023/12/22 08:38:08;;;;;;;10.82;2.50;;;8.20;99.90;;;;;;5060891;28;20522;-37
2023/12/22 08:40:35;;;;;;;7.57;1.92;;;8.20;99.90;;;;;;5057602;28;20028;-37
2023/12/22 08:43:01;;;;;;;7.93;2.13;;;8.20;99.90;;;;;;5057207;28;20028;-37
2023/12/22 08:45:29;;;;;;;8.73;2.03;;;8.20;99.90;;;;;;5058283;28;20509;-37
2023/12/22 08:47:58;;;;;;;10.30;2.35;;;8.20;99.90;;;;;;5061567;28;20097;-38
2023/12/22 08:50:24;;;;;;;12.85;2.65;;;8.30;99.90;;;;;;5059853;28;20012;-37
2023/12/22 08:52:49;;;;;;;16.15;2.90;;;8.30;99.90;;;;;;5060264;28;20157;-37
2023/12/22 08:55:18;;;;;;;16.42;2.45;;;8.30;99.90;;;;;;5060580;28;20040;-37
2023/12/22 08:57:44;;;;;;;13.55;3.10;;;8.40;99.90;;;;;;5057156;28;20089;-37
2023/12/22 09:00:10;;;;;;;13.93;3.10;;;8.40;99.90;;;;;;5059819;28;20025;-38
2023/12/22 09:02:35;;;;;;;13.32;2.42;;;8.50;99.90;;;;;;5060578;28;20028;-37
2023/12/22 09:05:01;;;;;;;12.63;2.53;;;8.40;99.90;;;;;;5060607;28;20021;-38
2023/12/22 09:07:27;;;;;;;12.93;2.85;;;8.50;99.90;;;;;;5059908;28;20125;-38
2023/12/22 09:09:52;;;;;;;8.30;2.25;;;8.50;99.90;;;;;;5061312;28;20036;-37
2023/12/22 09:12:18;;;;;;;10.57;2.63;;;8.60;99.90;;;;;;5059607;28;20032;-38
2023/12/22 09:14:44;;;;;;;9.05;1.90;;;8.60;99.90;;;;;;5057549;28;20115;-38
2023/12/22 09:17:13;;;;;;;9.98;2.17;;;8.60;99.90;;;;;;5059811;28;20024;-37
2023/12/22 09:19:39;;;;;;;9.32;2.20;;;8.60;99.90;;;;;;5058939;28;20027;-37
2023/12/22 09:22:04;;;;;;;8.82;1.70;;;8.70;99.90;;;;;;5060440;28;20634;-37
2023/12/22 09:24:30;;;;;;;11.20;2.50;;;8.70;99.90;;;;;;5057530;28;20035;-38
2023/12/22 09:27:05;;;;;;;10.15;2.63;;;8.70;99.90;;;;;;5066413;28;20032;-38
2023/12/22 09:29:35;;;;;;;7.60;2.03;;;8.70;99.90;;;;;;5058584;28;20126;-38
2023/12/22 09:32:01;;;;;;;9.15;1.85;;;8.80;99.90;;;;;;5059909;28;20029;-38
2023/12/22 09:34:29;;;;;;;8.30;2.00;;;8.80;99.90;;;;;;5061061;28;20383;-37
2023/12/22 09:36:56;;;;;;;5.00;1.58;;;8.90;99.90;;;;;;5059802;28;20023;-37
2023/12/22 09:39:21;;;;;;;7.93;1.83;;;8.90;99.90;;;;;;5058250;28;20021;-37
2023/12/22 09:41:49;;;;;;;9.07;2.10;;;8.90;99.90;;;;;;5064675;28;20036;-37
2023/12/22 09:44:36;;;;;;;5.68;1.83;;;9.00;99.90;;;;;;5059397;28;20035;-37
2023/12/22 09:47:04;;;;;;;7.82;2.53;;;9.00;99.90;;;;;;5055551;28;20094;-37
2023/12/22 09:49:31;;;;;;;6.75;1.33;;;9.10;99.90;;;;;;5065158;28;20020;-37
2023/12/22 09:51:58;;;;;;;5.07;1.17;;;9.10;99.90;;;;;;5077832;28;20031;-38
2023/12/22 09:54:25;;;;;;;4.35;0.80;;;9.00;99.90;;;;;;5058242;28;20055;-37
2023/12/22 09:56:52;;;;;;;3.65;1.02;;;8.90;99.90;;;;;;5060193;28;20131;-37
2023/12/22 09:59:18;;;;;;;4.38;0.77;;;8.80;99.90;;;;;;5057486;28;20025;-38
2023/12/22 10:01:47;;;;;;;2.88;0.85;;;8.70;99.90;;;;;;5059199;28;20028;-37
2023/12/22 10:04:14;;;;;;;2.33;0.60;;;8.60;99.90;;;;;;5059474;28;20559;-37
2023/12/22 10:06:41;;;;;;;2.38;0.50;;;8.50;99.90;;;;;;5059495;28;20151;-36
2023/12/22 10:09:08;;;;;;;1.83;0.50;;;8.50;99.90;;;;;;5060238;28;20097;-36
2023/12/22 10:11:39;;;;;;;0.47;0.40;;;8.40;99.90;;;;;;5058154;28;20028;-37
2023/12/22 10:14:06;;;;;;;1.70;0.50;;;8.40;99.90;;;;;;5060805;28;20535;-38
2023/12/22 10:16:32;;;;;;;1.33;0.70;;;8.40;99.90;;;;;;5059860;28;20082;-43
2023/12/22 10:19:00;;;;;;;1.58;0.85;;;8.40;99.90;;;;;;5059032;28;20032;-36
2023/12/22 10:21:25;;;;;;;2.92;0.63;;;8.40;99.90;;;;;;5058462;28;21179;-36
2023/12/22 10:23:51;;;;;;;1.50;0.43;;;8.40;99.90;;;;;;5060551;28;20456;-36
2023/12/22 10:26:17;;;;;;;3.45;0.63;;;8.50;99.90;;;;;;5060953;28;20040;-36
2023/12/22 10:28:43;;;;;;;2.22;0.63;;;8.50;99.90;;;;;;5058339;28;20708;-36
2023/12/22 10:31:09;;;;;;;2.75;1.00;;;8.50;99.90;;;;;;5058429;28;20565;-36
2023/12/22 10:33:34;;;;;;;2.22;0.70;;;8.60;99.90;;;;;;5058856;28;20066;-36
2023/12/22 10:36:00;;;;;;;2.85;0.90;;;8.70;99.90;;;;;;5057388;28;20846;-36
2023/12/22 10:38:32;;;;;;;3.58;0.90;;;8.80;99.90;;;;;;5057950;28;20028;-36
2023/12/22 10:40:58;;;;;;;5.55;1.20;;;8.90;99.90;;;;;;5056529;28;20032;-36
2023/12/22 10:43:24;;;;;;;3.60;1.42;;;9.00;99.90;;;;;;5059460;28;20036;-36
2023/12/22 10:45:55;;;;;;;1.15;0.80;;;9.10;99.90;;;;;;5059283;28;20021;-36
2023/12/22 10:48:21;;;;;;;4.43;1.05;;;9.20;99.90;;;;;;5059858;28;20021;-36
2023/12/22 10:50:48;;;;;;;4.82;1.52;;;9.30;99.90;;;;;;5058287;28;20086;-37
2023/12/22 10:53:14;;;;;;;2.90;1.05;;;9.30;99.90;;;;;;5058699;28;20052;-36
2023/12/22 10:55:39;;;;;;;4.22;1.00;;;9.30;99.90;;;;;;5058907;28;20029;-36
2023/12/22 10:58:05;;;;;;;3.30;1.65;;;9.30;99.90;;;;;;5058485;28;20384;-37
2023/12/22 11:00:33;;;;;;;3.58;1.00;;;9.40;99.90;;;;;;5057006;28;20036;-37
2023/12/22 11:03:06;;;;;;;2.72;0.90;;;9.40;99.90;;;;;;5057556;28;20104;-37
2023/12/22 11:05:33;;;;;;;2.78;0.82;;;9.40;99.90;;;;;;5058175;28;20736;-37
2023/12/22 11:08:03;;;;;;;2.40;0.90;;;9.40;99.90;;;;;;5059249;28;20029;-37
2023/12/22 11:10:31;;;;;;;2.70;0.90;;;9.40;99.90;;;;;;5057116;28;20024;-37
2023/12/22 11:12:58;;;;;;;2.90;1.10;;;9.50;99.90;;;;;;5059165;28;20036;-37
2023/12/22 11:15:24;;;;;;;3.70;1.20;;;9.50;99.90;;;;;;5056289;28;20031;-38
2023/12/22 11:17:52;;;;;;;3.28;1.08;;;9.50;99.90;;;;;;5057127;28;20036;-37
2023/12/22 11:20:18;;;;;;;3.70;0.98;;;9.60;99.90;;;;;;5059030;28;20776;-36
2023/12/22 11:22:45;;;;;;;4.22;1.00;;;9.60;99.90;;;;;;5059607;28;20043;-36
2023/12/22 11:25:10;;;;;;;3.88;1.20;;;9.70;99.90;;;;;;5057564;28;20451;-38
2023/12/22 11:27:37;;;;;;;2.92;1.00;;;9.60;99.90;;;;;;5059715;28;20113;-36
2023/12/22 11:30:08;;;;;;;4.60;1.38;;;9.70;99.90;;;;;;5059703;28;20050;-36
2023/12/22 11:32:34;;;;;;;4.20;1.65;;;9.80;99.90;;;;;;5059985;28;20104;-36
2023/12/22 11:35:00;;;;;;;4.25;1.17;;;9.80;99.90;;;;;;5062570;28;20838;-37
2023/12/22 11:37:25;;;;;;;5.03;1.35;;;9.80;99.90;;;;;;5062440;28;20028;-36
2023/12/22 11:39:52;;;;;;;5.03;1.27;;;9.90;99.90;;;;;;5060744;28;20021;-37
2023/12/22 11:42:25;;;;;;;2.67;1.20;;;9.90;99.90;;;;;;5061247;28;20060;-37
2023/12/22 11:44:52;;;;;;;2.22;0.90;;;9.90;99.90;;;;;;5044476;28;20098;-36
2023/12/22 11:47:23;;;;;;;4.97;0.98;;;9.90;99.90;;;;;;5061334;28;20039;-37
2023/12/22 11:49:50;;;;;;;4.28;1.17;;;10.00;99.90;;;;;;5062868;28;20174;-38
2023/12/22 11:52:17;;;;;;;3.22;1.15;;;10.00;99.90;;;;;;5060161;28;20504;-37
2023/12/22 11:54:54;;;;;;;2.35;0.93;;;10.00;99.90;;;;;;5061926;28;20086;-37
2023/12/22 11:57:37;;;;;;;2.35;0.82;;;10.00;99.90;;;;;;5060332;28;20056;-36
2023/12/22 12:00:35;;;;;;;3.20;0.90;;;10.00;99.90;;;;;;5060342;28;20040;-37
2023/12/22 12:03:06;;;;;;;5.55;0.90;;;10.00;99.90;;;;;;5059880;28;20028;-36
2023/12/22 12:05:31;;;;;;;3.90;0.73;;;10.00;99.90;;;;;;5058428;28;20028;-37
2023/12/22 12:08:06;;;;;;;4.38;1.05;;;10.00;99.90;;;;;;5059132;28;20406;-37
2023/12/22 12:10:32;;;;;;;5.80;1.17;;;10.00;99.90;;;;;;5062687;28;20063;-37
2023/12/22 12:13:08;;;;;;;6.38;1.10;;;10.00;99.90;;;;;;5061021;28;20024;-37
2023/12/22 12:15:35;;;;;;;3.97;1.38;;;10.00;99.90;;;;;;5049349;28;20024;-37
2023/12/22 12:18:05;;;;;;;3.92;1.17;;;10.00;99.90;;;;;;5054338;28;20026;-36
2023/12/22 12:20:32;;;;;;;4.63;1.20;;;10.10;99.90;;;;;;5059384;28;20013;-38
2023/12/22 12:22:57;;;;;;;3.78;1.30;;;10.10;99.90;;;;;;5059154;28;20041;-37
2023/12/22 12:25:26;;;;;;;2.50;1.05;;;10.10;99.90;;;;;;5061402;28;20017;-38
2023/12/22 12:28:05;;;;;;;6.38;1.25;;;10.10;99.90;;;;;;5057073;28;20047;-37
2023/12/22 12:30:32;;;;;;;5.13;1.35;;;10.10;99.90;;;;;;5055437;28;20020;-36
2023/12/22 12:33:13;;;;;;;5.25;1.27;;;10.10;99.90;;;;;;5059858;28;20043;-37
2023/12/22 12:35:40;;;;;;;5.72;1.30;;;10.10;99.90;;;;;;5060830;28;20075;-37
2023/12/22 12:38:06;;;;;;;3.60;1.13;;;10.10;99.90;;;;;;5059219;28;20025;-36
2023/12/22 12:40:34;;;;;;;4.72;1.00;;;10.10;99.90;;;;;;5059164;28;20028;-36
2023/12/22 12:43:02;;;;;;;4.35;1.20;;;10.10;99.90;;;;;;5057142;28;20032;-37
2023/12/22 12:45:28;;;;;;;5.00;1.15;;;10.10;99.90;;;;;;5058402;28;20032;-37
2023/12/22 12:48:02;;;;;;;2.38;0.98;;;10.10;99.90;;;;;;5058736;28;20539;-37
2023/12/22 12:50:28;;;;;;;3.53;1.35;;;10.10;99.90;;;;;;5059502;28;20029;-37
2023/12/22 12:52:55;;;;;;;5.75;1.27;;;10.10;99.90;;;;;;5061172;28;20053;-36
2023/12/22 12:55:22;;;;;;;4.72;1.35;;;10.20;99.90;;;;;;5055616;28;20020;-36